Spalding, Nebraska
Current Conditions -  °F | °C
As of 2:15 AM on Friday 24 Oct 2014 (Local Time) from KBVN Reporting Station
Haze Haze  
Wind Chill: 12°   Ceiling: Unl
Heat Index: 12°   Visibility: 5mi
Dew Point: 11°   Wind: 5mph
Humidity: 91%   Direction: 140°SE
Pressure: 29.95"   Gusts: NA
Location:  41.69°N, 98.36°W
Report Text: KBVN 240715Z AUTO 14004KT 5SM BR CLR 12/11 A2995 RMK AO2 T01200106
Loading
Personal Weather Stations






























Interactive Weather Map
Tropical Storm Tracking
New forecast layout! Learn more

10-Day Weather Forecast

Advertisements
Track Severe Weather on mobile